This is the latest recevied weather packets stored in our database for station/object YT1XN-8. If no packets are shown the sender has not sent any weather packets the latest 1 day(s).
| Time | Temp. | Humidity | Pressure | Rain* | Wind** | Luminosity | Snow |
|---|---|---|---|---|---|---|---|
| 1778011841 | 19.44° C | 48% | 1013.2 hPa | 0 mm | 0.89 m/s, 309° | - | - |
| 1778011299 | 18.89° C | 50% | 1013.1 hPa | 0 mm | 0 m/s | - | - |
| 1778011240 | 18.89° C | 50% | 1013 hPa | 0 mm | 0 m/s | - | - |
| 1778010639 | 18.89° C | 53% | 1012.9 hPa | 0 mm | 0 m/s | - | - |
| 1778010041 | 19.44° C | 51% | 1013 hPa | 0 mm | 0 m/s | - | - |
| 1778009979 | 19.44° C | 51% | 1012.9 hPa | 0 mm | 0.89 m/s, 265° | - | - |
| 1778009441 | 21.11° C | 47% | 1012.7 hPa | 0 mm | 2.68 m/s, 269° | - | - |
| 1778009319 | 21.11° C | 44% | 1012.6 hPa | 0 mm | 0.45 m/s, 269° | - | - |
| 1778008841 | 21.11° C | 43% | 1012.4 hPa | 0 mm | 0.45 m/s, 249° | - | - |
| 1778008659 | 21.67° C | 44% | 1012.5 hPa | 0 mm | 0.45 m/s, 252° | - | - |
| 1778008241 | 22.22° C | 38% | 1012.2 hPa | 0 mm | 0 m/s | - | - |
| 1778007999 | 22.22° C | 38% | 1012.1 hPa | 0 mm | 0 m/s | - | - |
| 1778007641 | 22.22° C | 39% | 1012.1 hPa | 0 mm | 0.45 m/s, 14° | - | - |
| 1778007339 | 22.22° C | 39% | 1012 hPa | 0 mm | 0.89 m/s, 9° | - | - |
| 1778007047 | 22.22° C | 39% | 1012 hPa | 0 mm | 0 m/s | - | - |
| 1778006679 | 22.22° C | 39% | 1011.9 hPa | 0 mm | 0 m/s | - | - |
| 1778006441 | 22.22° C | 40% | 1011.9 hPa | 0 mm | 0 m/s | - | - |
| 1778006019 | 22.22° C | 40% | 1011.9 hPa | 0 mm | 0.45 m/s, 66° | - | - |
| 1778005841 | 22.22° C | 41% | 1011.8 hPa | 0 mm | 0.45 m/s, 66° | - | - |
| 1778005359 | 22.22° C | 41% | 1011.8 hPa | 0 mm | 1.34 m/s, 70° | - | - |
| 1778005240 | 22.78° C | 41% | 1011.7 hPa | 0 mm | 1.34 m/s, 61° | - | - |
| 1778004699 | 22.78° C | 41% | 1011.7 hPa | 0 mm | 1.79 m/s, 76° | - | - |
| 1778004641 | 22.78° C | 40% | 1011.7 hPa | 0 mm | 1.79 m/s, 71° | - | - |
| 1778004039 | 22.78° C | 41% | 1011.7 hPa | 0 mm | 0.89 m/s, 65° | - | - |
| 1778003442 | 23.33° C | 41% | 1011.7 hPa | 0 mm | 1.79 m/s, 57° | - | - |
* Rain latest hour (hover to see other rain measurements)
** Current wind speed in m/s (hover to see current wind gust speed)